sensor_id;sensor_type;location;lat;lon;timestamp;P1;durP1;ratioP1;P2;durP2;ratioP2
69485;SDS011;56677;51.710;5.366;2022-09-16T00:01:39;3.90;;;1.10;;
69485;SDS011;56677;51.710;5.366;2022-09-16T00:04:04;3.97;;;1.10;;
69485;SDS011;56677;51.710;5.366;2022-09-16T00:06:29;2.50;;;0.80;;
69485;SDS011;56677;51.710;5.366;2022-09-16T00:08:55;3.53;;;1.10;;
69485;SDS011;56677;51.710;5.366;2022-09-16T00:11:21;2.70;;;1.00;;
69485;SDS011;56677;51.710;5.366;2022-09-16T00:13:46;2.63;;;1.03;;
69485;SDS011;56677;51.710;5.366;2022-09-16T00:16:14;3.20;;;1.02;;
69485;SDS011;56677;51.710;5.366;2022-09-16T00:18:40;2.50;;;0.90;;
69485;SDS011;56677;51.710;5.366;2022-09-16T00:21:06;1.52;;;0.90;;
69485;SDS011;56677;51.710;5.366;2022-09-16T00:23:32;2.75;;;0.98;;
69485;SDS011;56677;51.710;5.366;2022-09-16T00:25:57;2.60;;;1.00;;
69485;SDS011;56677;51.710;5.366;2022-09-16T00:28:22;3.90;;;1.03;;
69485;SDS011;56677;51.710;5.366;2022-09-16T00:30:48;2.20;;;0.90;;
69485;SDS011;56677;51.710;5.366;2022-09-16T00:33:13;3.70;;;0.83;;
69485;SDS011;56677;51.710;5.366;2022-09-16T00:35:38;3.20;;;1.10;;
69485;SDS011;56677;51.710;5.366;2022-09-16T00:38:03;2.03;;;0.80;;
69485;SDS011;56677;51.710;5.366;2022-09-16T00:40:28;2.80;;;0.80;;
69485;SDS011;56677;51.710;5.366;2022-09-16T00:42:54;2.22;;;0.85;;
69485;SDS011;56677;51.710;5.366;2022-09-16T00:45:20;2.45;;;0.90;;
69485;SDS011;56677;51.710;5.366;2022-09-16T00:47:50;3.67;;;0.90;;
69485;SDS011;56677;51.710;5.366;2022-09-16T00:50:18;3.00;;;1.10;;
69485;SDS011;56677;51.710;5.366;2022-09-16T00:52:44;3.35;;;1.00;;
69485;SDS011;56677;51.710;5.366;2022-09-16T00:55:12;3.53;;;0.77;;
69485;SDS011;56677;51.710;5.366;2022-09-16T00:57:37;3.72;;;1.00;;
69485;SDS011;56677;51.710;5.366;2022-09-16T01:00:03;2.10;;;0.93;;
69485;SDS011;56677;51.710;5.366;2022-09-16T01:02:29;1.67;;;0.83;;
69485;SDS011;56677;51.710;5.366;2022-09-16T01:04:55;1.47;;;0.87;;
69485;SDS011;56677;51.710;5.366;2022-09-16T01:07:25;2.40;;;1.00;;
69485;SDS011;56677;51.710;5.366;2022-09-16T01:09:50;2.95;;;1.00;;
69485;SDS011;56677;51.710;5.366;2022-09-16T01:12:15;2.30;;;0.82;;
69485;SDS011;56677;51.710;5.366;2022-09-16T01:14:41;3.97;;;1.52;;
69485;SDS011;56677;51.710;5.366;2022-09-16T01:32:28;2.65;;;0.93;;
69485;SDS011;56677;51.710;5.366;2022-09-16T01:34:57;3.60;;;1.08;;
69485;SDS011;56677;51.710;5.366;2022-09-16T01:40:15;3.90;;;0.90;;
69485;SDS011;56677;51.710;5.366;2022-09-16T01:42:48;3.80;;;0.88;;
69485;SDS011;56677;51.710;5.366;2022-09-16T01:48:21;2.22;;;0.57;;
69485;SDS011;56677;51.710;5.366;2022-09-16T01:51:05;2.40;;;1.00;;
69485;SDS011;56677;51.710;5.366;2022-09-16T01:53:33;3.90;;;1.30;;
69485;SDS011;56677;51.710;5.366;2022-09-16T01:59:01;3.47;;;1.10;;
69485;SDS011;56677;51.710;5.366;2022-09-16T02:01:33;2.10;;;0.80;;
69485;SDS011;56677;51.710;5.366;2022-09-16T02:04:02;2.40;;;1.10;;
69485;SDS011;56677;51.710;5.366;2022-09-16T02:06:28;2.10;;;1.10;;
69485;SDS011;56677;51.710;5.366;2022-09-16T02:08:56;2.88;;;1.17;;
69485;SDS011;56677;51.710;5.366;2022-09-16T02:11:22;1.85;;;0.73;;
69485;SDS011;56677;51.710;5.366;2022-09-16T02:13:49;3.63;;;1.30;;
69485;SDS011;56677;51.710;5.366;2022-09-16T02:16:24;2.28;;;1.10;;
69485;SDS011;56677;51.710;5.366;2022-09-16T02:18:54;3.33;;;1.02;;
69485;SDS011;56677;51.710;5.366;2022-09-16T02:21:20;3.17;;;1.00;;
69485;SDS011;56677;51.710;5.366;2022-09-16T02:23:49;3.00;;;1.08;;
69485;SDS011;56677;51.710;5.366;2022-09-16T02:26:16;2.27;;;1.00;;
69485;SDS011;56677;51.710;5.366;2022-09-16T02:28:43;3.50;;;1.10;;
69485;SDS011;56677;51.710;5.366;2022-09-16T02:31:10;2.67;;;0.80;;
69485;SDS011;56677;51.710;5.366;2022-09-16T02:33:47;2.28;;;1.10;;
69485;SDS011;56677;51.710;5.366;2022-09-16T02:36:13;3.85;;;1.50;;
69485;SDS011;56677;51.710;5.366;2022-09-16T02:38:40;3.03;;;1.03;;
69485;SDS011;56677;51.710;5.366;2022-09-16T02:41:08;2.75;;;1.10;;
69485;SDS011;56677;51.710;5.366;2022-09-16T02:43:33;3.35;;;1.30;;
69485;SDS011;56677;51.710;5.366;2022-09-16T02:51:27;2.83;;;1.00;;
69485;SDS011;56677;51.710;5.366;2022-09-16T02:53:55;2.37;;;1.10;;
69485;SDS011;56677;51.710;5.366;2022-09-16T02:58:48;1.63;;;0.90;;
69485;SDS011;56677;51.710;5.366;2022-09-16T03:01:13;2.17;;;0.73;;
69485;SDS011;56677;51.710;5.366;2022-09-16T03:03:38;2.70;;;1.08;;
69485;SDS011;56677;51.710;5.366;2022-09-16T03:06:20;3.43;;;0.90;;
69485;SDS011;56677;51.710;5.366;2022-09-16T03:08:46;3.05;;;1.25;;
69485;SDS011;56677;51.710;5.366;2022-09-16T03:11:17;1.88;;;1.08;;
69485;SDS011;56677;51.710;5.366;2022-09-16T03:16:22;2.15;;;1.02;;
69485;SDS011;56677;51.710;5.366;2022-09-16T03:26:32;3.72;;;1.10;;
69485;SDS011;56677;51.710;5.366;2022-09-16T03:29:18;1.90;;;0.80;;
69485;SDS011;56677;51.710;5.366;2022-09-16T03:31:59;3.10;;;0.87;;
69485;SDS011;56677;51.710;5.366;2022-09-16T03:34:40;1.73;;;0.80;;
69485;SDS011;56677;51.710;5.366;2022-09-16T03:37:09;2.05;;;1.00;;
69485;SDS011;56677;51.710;5.366;2022-09-16T03:39:35;2.70;;;1.00;;
69485;SDS011;56677;51.710;5.366;2022-09-16T03:42:04;1.70;;;1.03;;
69485;SDS011;56677;51.710;5.366;2022-09-16T03:44:34;3.47;;;1.10;;
69485;SDS011;56677;51.710;5.366;2022-09-16T03:46:59;3.47;;;1.05;;
69485;SDS011;56677;51.710;5.366;2022-09-16T03:49:25;2.20;;;1.00;;
69485;SDS011;56677;51.710;5.366;2022-09-16T03:51:50;3.03;;;0.93;;
69485;SDS011;56677;51.710;5.366;2022-09-16T03:54:15;3.65;;;1.17;;
69485;SDS011;56677;51.710;5.366;2022-09-16T03:56:40;2.20;;;1.13;;
69485;SDS011;56677;51.710;5.366;2022-09-16T03:59:05;2.13;;;1.20;;
69485;SDS011;56677;51.710;5.366;2022-09-16T04:01:30;1.58;;;0.82;;
69485;SDS011;56677;51.710;5.366;2022-09-16T04:03:55;1.23;;;0.90;;
69485;SDS011;56677;51.710;5.366;2022-09-16T04:06:20;2.17;;;0.93;;
69485;SDS011;56677;51.710;5.366;2022-09-16T04:08:45;2.00;;;0.85;;
69485;SDS011;56677;51.710;5.366;2022-09-16T04:11:10;2.33;;;1.13;;
69485;SDS011;56677;51.710;5.366;2022-09-16T04:13:36;2.25;;;1.00;;
69485;SDS011;56677;51.710;5.366;2022-09-16T04:16:01;2.63;;;1.00;;
69485;SDS011;56677;51.710;5.366;2022-09-16T04:18:28;2.03;;;0.90;;
69485;SDS011;56677;51.710;5.366;2022-09-16T04:20:58;1.73;;;0.97;;
69485;SDS011;56677;51.710;5.366;2022-09-16T04:23:24;2.78;;;1.02;;
69485;SDS011;56677;51.710;5.366;2022-09-16T04:25:55;1.48;;;1.00;;
69485;SDS011;56677;51.710;5.366;2022-09-16T04:28:21;3.38;;;1.13;;
69485;SDS011;56677;51.710;5.366;2022-09-16T04:30:46;1.97;;;1.00;;
69485;SDS011;56677;51.710;5.366;2022-09-16T04:33:11;1.58;;;1.08;;
69485;SDS011;56677;51.710;5.366;2022-09-16T04:35:36;3.10;;;1.10;;
69485;SDS011;56677;51.710;5.366;2022-09-16T04:38:01;1.83;;;0.85;;
69485;SDS011;56677;51.710;5.366;2022-09-16T04:40:26;1.75;;;1.05;;
69485;SDS011;56677;51.710;5.366;2022-09-16T04:42:51;1.70;;;1.00;;
69485;SDS011;56677;51.710;5.366;2022-09-16T04:45:16;2.58;;;1.15;;
69485;SDS011;56677;51.710;5.366;2022-09-16T04:47:42;2.33;;;1.07;;
69485;SDS011;56677;51.710;5.366;2022-09-16T04:50:07;2.53;;;1.17;;
69485;SDS011;56677;51.710;5.366;2022-09-16T04:52:32;1.93;;;1.13;;
69485;SDS011;56677;51.710;5.366;2022-09-16T04:54:57;1.57;;;0.87;;
69485;SDS011;56677;51.710;5.366;2022-09-16T04:57:23;2.80;;;1.10;;
69485;SDS011;56677;51.710;5.366;2022-09-16T04:59:48;1.40;;;0.90;;
69485;SDS011;56677;51.710;5.366;2022-09-16T05:02:13;2.25;;;1.00;;
69485;SDS011;56677;51.710;5.366;2022-09-16T05:04:38;1.95;;;1.00;;
69485;SDS011;56677;51.710;5.366;2022-09-16T05:07:03;2.45;;;1.08;;
69485;SDS011;56677;51.710;5.366;2022-09-16T05:09:28;2.17;;;1.00;;
69485;SDS011;56677;51.710;5.366;2022-09-16T05:11:53;3.17;;;1.00;;
69485;SDS011;56677;51.710;5.366;2022-09-16T05:14:18;2.45;;;0.80;;
69485;SDS011;56677;51.710;5.366;2022-09-16T05:16:44;1.23;;;0.85;;
69485;SDS011;56677;51.710;5.366;2022-09-16T05:19:10;1.70;;;1.10;;
69485;SDS011;56677;51.710;5.366;2022-09-16T05:21:35;2.17;;;1.10;;
69485;SDS011;56677;51.710;5.366;2022-09-16T05:24:05;2.37;;;1.00;;
69485;SDS011;56677;51.710;5.366;2022-09-16T05:26:31;1.38;;;0.98;;
69485;SDS011;56677;51.710;5.366;2022-09-16T05:28:58;1.83;;;0.90;;
69485;SDS011;56677;51.710;5.366;2022-09-16T05:31:25;2.45;;;1.10;;
69485;SDS011;56677;51.710;5.366;2022-09-16T05:33:57;2.10;;;1.15;;
69485;SDS011;56677;51.710;5.366;2022-09-16T05:36:22;1.92;;;0.90;;
69485;SDS011;56677;51.710;5.366;2022-09-16T05:38:48;1.87;;;1.10;;
69485;SDS011;56677;51.710;5.366;2022-09-16T05:41:13;1.50;;;0.73;;
69485;SDS011;56677;51.710;5.366;2022-09-16T05:43:38;2.50;;;1.10;;
69485;SDS011;56677;51.710;5.366;2022-09-16T05:46:05;2.30;;;1.20;;
69485;SDS011;56677;51.710;5.366;2022-09-16T05:48:30;2.63;;;1.00;;
69485;SDS011;56677;51.710;5.366;2022-09-16T05:50:57;1.85;;;1.00;;
69485;SDS011;56677;51.710;5.366;2022-09-16T05:53:23;1.40;;;0.95;;
69485;SDS011;56677;51.710;5.366;2022-09-16T05:55:55;2.63;;;0.90;;
69485;SDS011;56677;51.710;5.366;2022-09-16T05:58:20;2.67;;;1.10;;
69485;SDS011;56677;51.710;5.366;2022-09-16T06:00:45;3.70;;;1.30;;
69485;SDS011;56677;51.710;5.366;2022-09-16T06:03:11;1.83;;;0.80;;
69485;SDS011;56677;51.710;5.366;2022-09-16T06:05:36;2.13;;;1.13;;
69485;SDS011;56677;51.710;5.366;2022-09-16T06:08:01;1.88;;;0.85;;
69485;SDS011;56677;51.710;5.366;2022-09-16T06:10:26;2.00;;;0.80;;
69485;SDS011;56677;51.710;5.366;2022-09-16T06:12:51;2.88;;;1.10;;
69485;SDS011;56677;51.710;5.366;2022-09-16T06:15:16;1.40;;;0.98;;
69485;SDS011;56677;51.710;5.366;2022-09-16T06:17:41;2.15;;;0.82;;
69485;SDS011;56677;51.710;5.366;2022-09-16T06:20:06;4.32;;;1.10;;
69485;SDS011;56677;51.710;5.366;2022-09-16T06:22:32;1.10;;;0.70;;
69485;SDS011;56677;51.710;5.366;2022-09-16T06:24:57;1.63;;;0.97;;
69485;SDS011;56677;51.710;5.366;2022-09-16T06:27:22;1.55;;;1.00;;
69485;SDS011;56677;51.710;5.366;2022-09-16T06:29:47;1.48;;;0.80;;
69485;SDS011;56677;51.710;5.366;2022-09-16T06:32:12;1.73;;;1.20;;
69485;SDS011;56677;51.710;5.366;2022-09-16T06:34:37;1.80;;;0.87;;
69485;SDS011;56677;51.710;5.366;2022-09-16T06:37:02;1.90;;;0.90;;
69485;SDS011;56677;51.710;5.366;2022-09-16T06:39:28;2.88;;;0.93;;
69485;SDS011;56677;51.710;5.366;2022-09-16T06:41:53;1.67;;;0.90;;
69485;SDS011;56677;51.710;5.366;2022-09-16T06:44:18;1.85;;;0.85;;
69485;SDS011;56677;51.710;5.366;2022-09-16T06:46:43;1.73;;;0.97;;
69485;SDS011;56677;51.710;5.366;2022-09-16T06:49:08;2.80;;;1.40;;
69485;SDS011;56677;51.710;5.366;2022-09-16T06:51:33;11.63;;;1.30;;
69485;SDS011;56677;51.710;5.366;2022-09-16T06:54:03;2.90;;;1.20;;
69485;SDS011;56677;51.710;5.366;2022-09-16T06:56:29;1.90;;;0.80;;
69485;SDS011;56677;51.710;5.366;2022-09-16T06:58:54;4.67;;;1.17;;
69485;SDS011;56677;51.710;5.366;2022-09-16T07:01:24;3.67;;;1.10;;
69485;SDS011;56677;51.710;5.366;2022-09-16T07:03:50;3.58;;;1.20;;
69485;SDS011;56677;51.710;5.366;2022-09-16T07:06:16;4.85;;;1.55;;
69485;SDS011;56677;51.710;5.366;2022-09-16T07:08:42;3.73;;;1.00;;
69485;SDS011;56677;51.710;5.366;2022-09-16T07:11:09;2.60;;;1.00;;
69485;SDS011;56677;51.710;5.366;2022-09-16T07:13:35;4.93;;;1.10;;
69485;SDS011;56677;51.710;5.366;2022-09-16T07:16:00;5.00;;;1.07;;
69485;SDS011;56677;51.710;5.366;2022-09-16T07:18:26;3.73;;;1.27;;
69485;SDS011;56677;51.710;5.366;2022-09-16T07:20:51;4.47;;;1.10;;
69485;SDS011;56677;51.710;5.366;2022-09-16T07:23:17;7.68;;;1.35;;
69485;SDS011;56677;51.710;5.366;2022-09-16T07:25:42;2.70;;;1.13;;
69485;SDS011;56677;51.710;5.366;2022-09-16T07:28:07;3.17;;;1.00;;
69485;SDS011;56677;51.710;5.366;2022-09-16T07:30:32;6.37;;;1.10;;
69485;SDS011;56677;51.710;5.366;2022-09-16T07:32:57;3.92;;;1.30;;
69485;SDS011;56677;51.710;5.366;2022-09-16T07:35:22;4.03;;;1.08;;
69485;SDS011;56677;51.710;5.366;2022-09-16T07:37:47;3.33;;;1.10;;
69485;SDS011;56677;51.710;5.366;2022-09-16T07:40:12;3.20;;;1.00;;
69485;SDS011;56677;51.710;5.366;2022-09-16T07:42:38;3.97;;;1.20;;
69485;SDS011;56677;51.710;5.366;2022-09-16T07:45:03;6.50;;;1.20;;
69485;SDS011;56677;51.710;5.366;2022-09-16T07:47:29;5.37;;;1.17;;
69485;SDS011;56677;51.710;5.366;2022-09-16T07:49:54;4.27;;;1.00;;
69485;SDS011;56677;51.710;5.366;2022-09-16T07:52:19;4.55;;;1.15;;
69485;SDS011;56677;51.710;5.366;2022-09-16T07:54:44;3.00;;;0.95;;
69485;SDS011;56677;51.710;5.366;2022-09-16T07:57:09;2.03;;;0.75;;
69485;SDS011;56677;51.710;5.366;2022-09-16T07:59:34;2.88;;;0.90;;
69485;SDS011;56677;51.710;5.366;2022-09-16T08:01:59;5.47;;;0.95;;
69485;SDS011;56677;51.710;5.366;2022-09-16T08:04:24;1.90;;;0.87;;
69485;SDS011;56677;51.710;5.366;2022-09-16T08:06:50;2.28;;;1.08;;
69485;SDS011;56677;51.710;5.366;2022-09-16T08:09:15;2.50;;;0.80;;
69485;SDS011;56677;51.710;5.366;2022-09-16T08:11:40;2.83;;;1.07;;
69485;SDS011;56677;51.710;5.366;2022-09-16T08:14:05;4.10;;;0.90;;
69485;SDS011;56677;51.710;5.366;2022-09-16T08:16:31;2.90;;;1.02;;
69485;SDS011;56677;51.710;5.366;2022-09-16T08:18:56;4.05;;;1.02;;
69485;SDS011;56677;51.710;5.366;2022-09-16T08:21:23;3.30;;;1.10;;
69485;SDS011;56677;51.710;5.366;2022-09-16T08:23:48;4.65;;;1.00;;
69485;SDS011;56677;51.710;5.366;2022-09-16T08:26:14;2.53;;;0.97;;
69485;SDS011;56677;51.710;5.366;2022-09-16T08:28:40;3.28;;;1.30;;
69485;SDS011;56677;51.710;5.366;2022-09-16T08:31:05;4.40;;;1.05;;
69485;SDS011;56677;51.710;5.366;2022-09-16T08:33:30;3.72;;;0.90;;
69485;SDS011;56677;51.710;5.366;2022-09-16T08:35:56;3.03;;;1.20;;
69485;SDS011;56677;51.710;5.366;2022-09-16T08:38:22;2.70;;;0.90;;
69485;SDS011;56677;51.710;5.366;2022-09-16T08:40:47;3.30;;;1.13;;
69485;SDS011;56677;51.710;5.366;2022-09-16T08:50:35;3.72;;;1.10;;
69485;SDS011;56677;51.710;5.366;2022-09-16T08:53:02;2.37;;;0.90;;
69485;SDS011;56677;51.710;5.366;2022-09-16T08:55:29;1.92;;;0.98;;
69485;SDS011;56677;51.710;5.366;2022-09-16T09:00:20;4.32;;;1.00;;
69485;SDS011;56677;51.710;5.366;2022-09-16T09:05:18;3.00;;;1.17;;
69485;SDS011;56677;51.710;5.366;2022-09-16T09:12:48;2.08;;;1.00;;
69485;SDS011;56677;51.710;5.366;2022-09-16T09:15:34;3.45;;;0.90;;
69485;SDS011;56677;51.710;5.366;2022-09-16T09:20:32;2.78;;;0.90;;
69485;SDS011;56677;51.710;5.366;2022-09-16T09:30:43;2.42;;;0.90;;
69485;SDS011;56677;51.710;5.366;2022-09-16T09:40:53;3.60;;;1.10;;
69485;SDS011;56677;51.710;5.366;2022-09-16T09:48:23;1.92;;;0.82;;
69485;SDS011;56677;51.710;5.366;2022-09-16T09:50:49;2.28;;;0.93;;
69485;SDS011;56677;51.710;5.366;2022-09-16T09:53:23;2.33;;;0.90;;
69485;SDS011;56677;51.710;5.366;2022-09-16T09:55:48;4.45;;;1.00;;
69485;SDS011;56677;51.710;5.366;2022-09-16T10:01:00;2.97;;;1.27;;
69485;SDS011;56677;51.710;5.366;2022-09-16T10:03:26;1.60;;;0.77;;
69485;SDS011;56677;51.710;5.366;2022-09-16T10:05:52;1.25;;;0.85;;
69485;SDS011;56677;51.710;5.366;2022-09-16T10:08:24;2.88;;;1.13;;
69485;SDS011;56677;51.710;5.366;2022-09-16T10:10:51;3.08;;;1.17;;
69485;SDS011;56677;51.710;5.366;2022-09-16T10:13:17;3.17;;;1.20;;
69485;SDS011;56677;51.710;5.366;2022-09-16T10:15:42;2.85;;;1.10;;
69485;SDS011;56677;51.710;5.366;2022-09-16T10:18:10;2.30;;;0.90;;
69485;SDS011;56677;51.710;5.366;2022-09-16T10:20:37;2.07;;;1.07;;
69485;SDS011;56677;51.710;5.366;2022-09-16T10:25:28;3.35;;;0.93;;
69485;SDS011;56677;51.710;5.366;2022-09-16T10:27:55;1.70;;;0.98;;
69485;SDS011;56677;51.710;5.366;2022-09-16T10:30:20;3.08;;;1.00;;
69485;SDS011;56677;51.710;5.366;2022-09-16T10:33:05;3.17;;;1.02;;
69485;SDS011;56677;51.710;5.366;2022-09-16T10:35:32;2.80;;;1.17;;
69485;SDS011;56677;51.710;5.366;2022-09-16T10:37:58;2.60;;;1.10;;
69485;SDS011;56677;51.710;5.366;2022-09-16T10:40:25;2.40;;;0.88;;
69485;SDS011;56677;51.710;5.366;2022-09-16T10:42:51;3.13;;;1.00;;
69485;SDS011;56677;51.710;5.366;2022-09-16T10:45:24;2.53;;;0.80;;
69485;SDS011;56677;51.710;5.366;2022-09-16T10:47:50;2.05;;;1.00;;
69485;SDS011;56677;51.710;5.366;2022-09-16T10:50:17;2.42;;;1.05;;
69485;SDS011;56677;51.710;5.366;2022-09-16T10:52:43;1.65;;;0.73;;
69485;SDS011;56677;51.710;5.366;2022-09-16T10:55:31;3.07;;;1.10;;
69485;SDS011;56677;51.710;5.366;2022-09-16T11:00:34;1.88;;;0.80;;
69485;SDS011;56677;51.710;5.366;2022-09-16T11:05:32;1.92;;;0.80;;
69485;SDS011;56677;51.710;5.366;2022-09-16T11:08:10;1.60;;;0.80;;
69485;SDS011;56677;51.710;5.366;2022-09-16T11:10:43;2.10;;;0.73;;
69485;SDS011;56677;51.710;5.366;2022-09-16T11:13:36;2.72;;;0.80;;
69485;SDS011;56677;51.710;5.366;2022-09-16T11:19:26;2.42;;;1.20;;
69485;SDS011;56677;51.710;5.366;2022-09-16T11:49:33;1.77;;;0.68;;
69485;SDS011;56677;51.710;5.366;2022-09-16T11:57:15;2.33;;;1.30;;
69485;SDS011;56677;51.710;5.366;2022-09-16T11:59:49;4.88;;;1.10;;
69485;SDS011;56677;51.710;5.366;2022-09-16T12:04:45;3.20;;;1.10;;
69485;SDS011;56677;51.710;5.366;2022-09-16T12:07:14;3.87;;;0.77;;
69485;SDS011;56677;51.710;5.366;2022-09-16T12:09:43;2.80;;;0.90;;
69485;SDS011;56677;51.710;5.366;2022-09-16T12:12:12;1.60;;;0.88;;
69485;SDS011;56677;51.710;5.366;2022-09-16T12:14:39;2.63;;;0.90;;
69485;SDS011;56677;51.710;5.366;2022-09-16T12:17:27;2.45;;;0.90;;
69485;SDS011;56677;51.710;5.366;2022-09-16T12:19:58;3.53;;;0.73;;
69485;SDS011;56677;51.710;5.366;2022-09-16T12:27:43;1.95;;;0.95;;
69485;SDS011;56677;51.710;5.366;2022-09-16T12:35:01;3.33;;;1.00;;
69485;SDS011;56677;51.710;5.366;2022-09-16T12:37:46;2.40;;;0.88;;
69485;SDS011;56677;51.710;5.366;2022-09-16T12:40:16;1.92;;;0.70;;
69485;SDS011;56677;51.710;5.366;2022-09-16T12:43:00;1.58;;;0.80;;
69485;SDS011;56677;51.710;5.366;2022-09-16T12:48:19;2.40;;;1.00;;
69485;SDS011;56677;51.710;5.366;2022-09-16T12:58:40;3.80;;;0.90;;
69485;SDS011;56677;51.710;5.366;2022-09-16T13:03:38;3.77;;;1.20;;
69485;SDS011;56677;51.710;5.366;2022-09-16T13:06:12;1.77;;;0.80;;
69485;SDS011;56677;51.710;5.366;2022-09-16T13:08:39;2.42;;;0.85;;
69485;SDS011;56677;51.710;5.366;2022-09-16T13:11:06;2.92;;;0.93;;
69485;SDS011;56677;51.710;5.366;2022-09-16T13:13:35;3.13;;;0.90;;
69485;SDS011;56677;51.710;5.366;2022-09-16T13:16:02;2.42;;;0.98;;
69485;SDS011;56677;51.710;5.366;2022-09-16T13:18:41;4.47;;;1.23;;
69485;SDS011;56677;51.710;5.366;2022-09-16T13:23:45;4.97;;;1.10;;
69485;SDS011;56677;51.710;5.366;2022-09-16T13:26:11;6.38;;;1.20;;
69485;SDS011;56677;51.710;5.366;2022-09-16T13:28:37;7.25;;;0.98;;
69485;SDS011;56677;51.710;5.366;2022-09-16T13:33:40;3.67;;;0.95;;
69485;SDS011;56677;51.710;5.366;2022-09-16T13:38:44;6.55;;;1.40;;
69485;SDS011;56677;51.710;5.366;2022-09-16T13:41:11;8.73;;;1.30;;
69485;SDS011;56677;51.710;5.366;2022-09-16T13:46:08;6.10;;;0.90;;
69485;SDS011;56677;51.710;5.366;2022-09-16T13:48:35;9.23;;;1.17;;
69485;SDS011;56677;51.710;5.366;2022-09-16T13:51:01;5.60;;;1.20;;
69485;SDS011;56677;51.710;5.366;2022-09-16T13:53:32;4.05;;;1.00;;
69485;SDS011;56677;51.710;5.366;2022-09-16T13:56:04;2.70;;;0.80;;
69485;SDS011;56677;51.710;5.366;2022-09-16T13:58:32;4.63;;;1.10;;
69485;SDS011;56677;51.710;5.366;2022-09-16T14:03:49;5.65;;;0.80;;
69485;SDS011;56677;51.710;5.366;2022-09-16T14:14:09;7.35;;;1.20;;
69485;SDS011;56677;51.710;5.366;2022-09-16T14:16:37;9.23;;;1.15;;
69485;SDS011;56677;51.710;5.366;2022-09-16T14:19:05;6.78;;;1.10;;
69485;SDS011;56677;51.710;5.366;2022-09-16T14:21:30;6.87;;;0.93;;
69485;SDS011;56677;51.710;5.366;2022-09-16T14:24:05;4.13;;;0.87;;
69485;SDS011;56677;51.710;5.366;2022-09-16T14:26:31;4.57;;;1.20;;
69485;SDS011;56677;51.710;5.366;2022-09-16T14:29:03;4.60;;;1.00;;
69485;SDS011;56677;51.710;5.366;2022-09-16T14:31:29;4.45;;;0.90;;
69485;SDS011;56677;51.710;5.366;2022-09-16T14:33:55;6.40;;;0.90;;
69485;SDS011;56677;51.710;5.366;2022-09-16T14:36:28;6.15;;;1.33;;
69485;SDS011;56677;51.710;5.366;2022-09-16T14:38:55;2.88;;;0.93;;
69485;SDS011;56677;51.710;5.366;2022-09-16T14:41:28;4.87;;;1.23;;
69485;SDS011;56677;51.710;5.366;2022-09-16T14:43:54;3.97;;;1.00;;
69485;SDS011;56677;51.710;5.366;2022-09-16T14:46:21;3.08;;;0.93;;
69485;SDS011;56677;51.710;5.366;2022-09-16T14:48:47;7.50;;;1.30;;
69485;SDS011;56677;51.710;5.366;2022-09-16T14:51:18;5.23;;;0.70;;
69485;SDS011;56677;51.710;5.366;2022-09-16T14:53:52;4.22;;;1.10;;
69485;SDS011;56677;51.710;5.366;2022-09-16T14:56:17;4.32;;;0.80;;
69485;SDS011;56677;51.710;5.366;2022-09-16T14:58:42;3.53;;;0.90;;
69485;SDS011;56677;51.710;5.366;2022-09-16T15:01:09;3.60;;;0.97;;
69485;SDS011;56677;51.710;5.366;2022-09-16T15:03:44;3.10;;;0.85;;
69485;SDS011;56677;51.710;5.366;2022-09-16T15:06:14;3.08;;;1.20;;
69485;SDS011;56677;51.710;5.366;2022-09-16T15:08:41;3.53;;;1.08;;
69485;SDS011;56677;51.710;5.366;2022-09-16T15:11:12;4.57;;;1.30;;
69485;SDS011;56677;51.710;5.366;2022-09-16T15:13:38;4.97;;;1.30;;
69485;SDS011;56677;51.710;5.366;2022-09-16T15:16:07;3.27;;;0.93;;
69485;SDS011;56677;51.710;5.366;2022-09-16T15:18:33;3.58;;;1.17;;
69485;SDS011;56677;51.710;5.366;2022-09-16T15:23:31;5.20;;;0.90;;
69485;SDS011;56677;51.710;5.366;2022-09-16T15:26:08;3.35;;;1.05;;
69485;SDS011;56677;51.710;5.366;2022-09-16T15:28:34;3.97;;;1.07;;
69485;SDS011;56677;51.710;5.366;2022-09-16T15:31:00;3.33;;;1.02;;
69485;SDS011;56677;51.710;5.366;2022-09-16T15:35:50;7.60;;;3.42;;
69485;SDS011;56677;51.710;5.366;2022-09-16T15:38:19;23.17;;;11.23;;
69485;SDS011;56677;51.710;5.366;2022-09-16T15:40:44;48.33;;;25.77;;
69485;SDS011;56677;51.710;5.366;2022-09-16T15:45:37;100.55;;;51.75;;
69485;SDS011;56677;51.710;5.366;2022-09-16T15:48:14;161.80;;;100.90;;
69485;SDS011;56677;51.710;5.366;2022-09-16T15:50:42;168.52;;;103.90;;
69485;SDS011;56677;51.710;5.366;2022-09-16T15:58:00;146.33;;;96.80;;
69485;SDS011;56677;51.710;5.366;2022-09-16T16:00:27;161.50;;;105.35;;
69485;SDS011;56677;51.710;5.366;2022-09-16T16:02:59;170.43;;;109.67;;
69485;SDS011;56677;51.710;5.366;2022-09-16T16:05:26;175.70;;;115.32;;
69485;SDS011;56677;51.710;5.366;2022-09-16T16:07:52;160.77;;;109.07;;
69485;SDS011;56677;51.710;5.366;2022-09-16T16:10:19;154.98;;;105.90;;
69485;SDS011;56677;51.710;5.366;2022-09-16T16:12:44;144.17;;;99.73;;
69485;SDS011;56677;51.710;5.366;2022-09-16T16:15:09;140.20;;;95.07;;
69485;SDS011;56677;51.710;5.366;2022-09-16T16:17:34;137.80;;;95.00;;
69485;SDS011;56677;51.710;5.366;2022-09-16T16:20:00;132.53;;;91.90;;
69485;SDS011;56677;51.710;5.366;2022-09-16T16:22:25;130.43;;;89.47;;
69485;SDS011;56677;51.710;5.366;2022-09-16T16:24:50;131.38;;;89.95;;
69485;SDS011;56677;51.710;5.366;2022-09-16T16:27:15;122.25;;;86.15;;
69485;SDS011;56677;51.710;5.366;2022-09-16T16:29:40;120.50;;;86.33;;
69485;SDS011;56677;51.710;5.366;2022-09-16T16:32:13;122.63;;;85.05;;
69485;SDS011;56677;51.710;5.366;2022-09-16T16:34:42;112.38;;;79.68;;
69485;SDS011;56677;51.710;5.366;2022-09-16T16:37:07;102.80;;;70.90;;
69485;SDS011;56677;51.710;5.366;2022-09-16T16:39:33;102.13;;;70.07;;
69485;SDS011;56677;51.710;5.366;2022-09-16T16:41:58;97.45;;;68.90;;
69485;SDS011;56677;51.710;5.366;2022-09-16T16:44:24;98.17;;;67.73;;
69485;SDS011;56677;51.710;5.366;2022-09-16T16:46:49;95.88;;;67.63;;
69485;SDS011;56677;51.710;5.366;2022-09-16T16:49:14;89.40;;;62.73;;
69485;SDS011;56677;51.710;5.366;2022-09-16T16:51:40;91.55;;;62.47;;
69485;SDS011;56677;51.710;5.366;2022-09-16T16:54:05;88.00;;;61.77;;
69485;SDS011;56677;51.710;5.366;2022-09-16T16:56:30;84.32;;;58.67;;
69485;SDS011;56677;51.710;5.366;2022-09-16T16:58:55;84.35;;;58.28;;
69485;SDS011;56677;51.710;5.366;2022-09-16T17:01:20;87.03;;;59.28;;
69485;SDS011;56677;51.710;5.366;2022-09-16T17:03:46;79.88;;;55.65;;
69485;SDS011;56677;51.710;5.366;2022-09-16T17:06:11;80.73;;;56.80;;
69485;SDS011;56677;51.710;5.366;2022-09-16T17:08:36;76.87;;;52.57;;
69485;SDS011;56677;51.710;5.366;2022-09-16T17:11:08;77.77;;;55.77;;
69485;SDS011;56677;51.710;5.366;2022-09-16T17:13:34;76.13;;;52.75;;
69485;SDS011;56677;51.710;5.366;2022-09-16T17:15:59;72.73;;;49.97;;
69485;SDS011;56677;51.710;5.366;2022-09-16T17:18:24;73.00;;;49.80;;
69485;SDS011;56677;51.710;5.366;2022-09-16T17:20:49;66.43;;;46.00;;
69485;SDS011;56677;51.710;5.366;2022-09-16T17:23:14;67.32;;;45.03;;
69485;SDS011;56677;51.710;5.366;2022-09-16T17:25:39;67.90;;;46.93;;
69485;SDS011;56677;51.710;5.366;2022-09-16T17:28:04;67.28;;;44.90;;
69485;SDS011;56677;51.710;5.366;2022-09-16T17:30:30;65.30;;;45.37;;
69485;SDS011;56677;51.710;5.366;2022-09-16T17:32:55;58.63;;;42.78;;
69485;SDS011;56677;51.710;5.366;2022-09-16T17:35:20;59.95;;;42.03;;
69485;SDS011;56677;51.710;5.366;2022-09-16T17:37:45;58.93;;;40.80;;
69485;SDS011;56677;51.710;5.366;2022-09-16T17:40:10;59.63;;;40.97;;
69485;SDS011;56677;51.710;5.366;2022-09-16T17:42:35;52.23;;;36.93;;
69485;SDS011;56677;51.710;5.366;2022-09-16T17:45:00;55.85;;;39.65;;
69485;SDS011;56677;51.710;5.366;2022-09-16T17:47:25;51.08;;;37.97;;
69485;SDS011;56677;51.710;5.366;2022-09-16T17:49:50;50.25;;;36.00;;
69485;SDS011;56677;51.710;5.366;2022-09-16T17:52:15;52.13;;;35.22;;